createdAt,value
2017-06-19T00:00:44.342Z,0
2017-06-19T00:01:44.975Z,0
2017-06-19T00:02:44.644Z,0
2017-06-19T00:03:44.658Z,0
2017-06-19T00:04:44.312Z,0
2017-06-19T00:05:44.948Z,0
2017-06-19T00:06:44.620Z,0
2017-06-19T00:07:44.617Z,0
2017-06-19T00:08:44.606Z,0
2017-06-19T00:09:44.311Z,0
2017-06-19T00:10:44.595Z,0
2017-06-19T00:11:44.607Z,0
2017-06-19T00:12:44.910Z,0
2017-06-19T00:13:44.900Z,0
2017-06-19T00:14:44.576Z,0
2017-06-19T00:15:44.572Z,0
2017-06-19T00:16:44.881Z,0
2017-06-19T00:17:44.891Z,0
2017-06-19T00:18:44.552Z,0
2017-06-19T00:19:43.897Z,0
2017-06-19T00:20:44.214Z,0
2017-06-19T00:21:44.855Z,0
2017-06-19T00:22:44.866Z,0
2017-06-19T00:23:44.840Z,0
2017-06-19T00:24:44.512Z,0
2017-06-19T00:25:44.515Z,0
2017-06-19T00:26:44.839Z,0
2017-06-19T00:27:44.181Z,0
2017-06-19T00:28:44.163Z,0
2017-06-19T00:29:44.510Z,0
2017-06-19T00:30:43.830Z,0
2017-06-19T00:31:44.149Z,0
2017-06-19T00:32:44.462Z,0
2017-06-19T00:33:43.830Z,0
2017-06-19T00:34:44.449Z,0
2017-06-19T00:35:44.764Z,0
2017-06-19T00:36:44.438Z,0
2017-06-19T00:37:44.431Z,0
2017-06-19T00:38:44.428Z,0
2017-06-19T00:39:43.773Z,0
2017-06-19T00:40:44.752Z,0
2017-06-19T00:41:44.084Z,0
2017-06-19T00:42:44.078Z,0
2017-06-19T00:43:44.393Z,0
2017-06-19T00:44:44.389Z,0
2017-06-19T00:45:44.382Z,0
2017-06-19T00:46:44.386Z,0
2017-06-19T00:47:44.713Z,0
2017-06-19T00:48:44.682Z,0
2017-06-19T00:49:44.354Z,0
2017-06-19T00:50:44.346Z,0
2017-06-19T00:51:44.664Z,0
2017-06-19T00:52:44.656Z,0
2017-06-19T00:53:44.397Z,0
2017-06-19T00:54:43.997Z,0
2017-06-19T00:55:44.021Z,0
2017-06-19T00:56:44.309Z,0
2017-06-19T00:57:43.982Z,0
2017-06-19T00:58:44.297Z,0
2017-06-19T00:59:43.648Z,0
2017-06-19T01:00:43.962Z,0
2017-06-19T01:01:44.601Z,0
2017-06-19T01:02:44.288Z,0
2017-06-19T01:03:44.264Z,0
2017-06-19T01:04:44.604Z,0
2017-06-19T01:05:43.947Z,0
2017-06-19T01:06:44.275Z,0
2017-06-19T01:07:44.562Z,0
2017-06-19T01:08:44.248Z,0
2017-06-19T01:09:44.263Z,0
2017-06-19T01:10:44.541Z,0
2017-06-19T01:11:44.536Z,0
2017-06-19T01:12:43.585Z,0
2017-06-19T01:13:43.882Z,0
2017-06-19T01:14:44.534Z,0
2017-06-19T01:15:44.199Z,0
2017-06-19T01:16:44.505Z,0
2017-06-19T01:17:44.187Z,0
2017-06-19T01:18:43.848Z,0
2017-06-19T01:19:44.485Z,0
2017-06-19T01:20:44.182Z,0
2017-06-19T01:21:44.154Z,0
2017-06-19T01:22:44.156Z,0
2017-06-19T01:23:44.137Z,0
2017-06-19T01:24:44.149Z,0
2017-06-19T01:25:44.448Z,0
2017-06-19T01:26:44.139Z,0
2017-06-19T01:27:44.137Z,0
2017-06-19T01:28:44.458Z,0
2017-06-19T01:29:44.428Z,0
2017-06-19T01:30:44.416Z,0
2017-06-19T01:31:44.412Z,0
2017-06-19T01:32:44.096Z,0
2017-06-19T01:33:43.770Z,0
2017-06-19T01:34:44.068Z,0
2017-06-19T01:35:43.748Z,0
2017-06-19T01:36:43.733Z,0
2017-06-19T01:37:44.049Z,0
2017-06-19T01:38:44.371Z,0
2017-06-19T01:39:44.358Z,0
2017-06-19T01:40:44.358Z,0
2017-06-19T01:41:44.032Z,0
2017-06-19T01:42:44.041Z,0
2017-06-19T01:43:44.346Z,0
2017-06-19T01:44:44.347Z,0
2017-06-19T01:45:44.028Z,0
2017-06-19T01:46:43.990Z,0
2017-06-19T01:47:44.311Z,0
2017-06-19T01:48:43.394Z,0
2017-06-19T01:49:43.974Z,0
2017-06-19T01:50:43.968Z,0
2017-06-19T01:51:44.287Z,0
2017-06-19T01:52:43.949Z,0
2017-06-19T01:53:43.630Z,0
2017-06-19T01:54:43.944Z,0
2017-06-19T01:55:44.258Z,0
2017-06-19T01:56:43.955Z,0
2017-06-19T01:57:43.601Z,0
2017-06-19T01:58:43.622Z,0
2017-06-19T01:59:44.232Z,0
2017-06-19T02:00:43.914Z,0
2017-06-19T02:01:43.278Z,0
2017-06-19T02:02:43.255Z,0
2017-06-19T02:03:44.215Z,0
2017-06-19T02:04:43.572Z,0
2017-06-19T02:05:43.576Z,0
2017-06-19T02:06:43.546Z,0
2017-06-19T02:07:44.196Z,0
2017-06-19T02:08:43.576Z,0
2017-06-19T02:09:43.867Z,0
2017-06-19T02:10:44.171Z,0
2017-06-19T02:11:43.841Z,0
2017-06-19T02:12:43.511Z,0
2017-06-19T02:13:43.518Z,4
2017-06-19T02:14:44.179Z,4
2017-06-19T02:15:44.134Z,0
2017-06-19T02:16:44.146Z,0
2017-06-19T02:17:43.799Z,4
2017-06-19T02:18:43.795Z,4
2017-06-19T02:19:43.797Z,4
2017-06-19T02:20:44.106Z,4
2017-06-19T02:21:44.097Z,4
2017-06-19T02:22:44.092Z,4
2017-06-19T02:23:43.966Z,4
2017-06-19T02:24:44.081Z,4
2017-06-19T02:25:44.087Z,8
2017-06-19T02:26:44.066Z,8
2017-06-19T02:27:43.747Z,8
2017-06-19T02:28:43.425Z,8
2017-06-19T02:29:43.724Z,12
2017-06-19T02:30:43.724Z,12
2017-06-19T02:31:43.744Z,16
2017-06-19T02:32:43.709Z,16
2017-06-19T02:33:43.716Z,16
2017-06-19T02:34:44.039Z,24
2017-06-19T02:35:43.372Z,24
2017-06-19T02:36:43.701Z,28
2017-06-19T02:37:44.012Z,28
2017-06-19T02:38:43.992Z,36
2017-06-19T02:39:43.663Z,40
2017-06-19T02:40:43.976Z,44
2017-06-19T02:41:43.666Z,44
2017-06-19T02:42:43.973Z,52
2017-06-19T02:43:43.642Z,56
2017-06-19T02:44:43.680Z,64
2017-06-19T02:45:43.631Z,72
2017-06-19T02:46:43.303Z,76
2017-06-19T02:47:43.637Z,84
2017-06-19T02:48:43.931Z,92
2017-06-19T02:49:43.605Z,104
2017-06-19T02:50:43.934Z,112
2017-06-19T02:51:43.269Z,120
2017-06-19T02:52:43.583Z,136
2017-06-19T02:53:43.925Z,144
2017-06-19T02:54:43.572Z,156
2017-06-19T02:55:43.245Z,168
2017-06-19T02:56:43.258Z,180
2017-06-19T02:57:43.556Z,196
2017-06-19T02:58:42.901Z,208
2017-06-19T02:59:43.221Z,224
2017-06-19T03:00:43.856Z,240
2017-06-19T03:01:43.530Z,256
2017-06-19T03:02:43.845Z,272
2017-06-19T03:03:43.519Z,292
2017-06-19T03:04:43.188Z,312
2017-06-19T03:05:43.202Z,328
2017-06-19T03:06:43.217Z,348
2017-06-19T03:07:43.170Z,368
2017-06-19T03:08:43.214Z,388
2017-06-19T03:09:43.168Z,408
2017-06-19T03:10:43.486Z,432
2017-06-19T03:11:43.809Z,456
2017-06-19T03:12:43.785Z,480
2017-06-19T03:13:43.454Z,504
2017-06-19T03:14:43.785Z,528
2017-06-19T03:15:43.778Z,552
2017-06-19T03:16:43.758Z,576
2017-06-19T03:17:43.121Z,600
2017-06-19T03:18:43.104Z,628
2017-06-19T03:19:43.422Z,652
2017-06-19T03:20:43.410Z,672
2017-06-19T03:21:43.406Z,700
2017-06-19T03:22:42.755Z,724
2017-06-19T03:23:43.410Z,752
2017-06-19T03:24:43.731Z,776
2017-06-19T03:25:43.396Z,804
2017-06-19T03:26:43.376Z,828
2017-06-19T03:27:42.728Z,852
2017-06-19T03:28:43.040Z,880
2017-06-19T03:29:43.357Z,912
2017-06-19T03:30:43.355Z,936
2017-06-19T03:31:43.710Z,964
2017-06-19T03:32:43.020Z,988
2017-06-19T03:33:43.658Z,1012
2017-06-19T03:34:43.653Z,1040
2017-06-19T03:35:43.648Z,1068
2017-06-19T03:36:43.654Z,1092
2017-06-19T03:37:43.315Z,1120
2017-06-19T03:38:43.305Z,1144
2017-06-19T03:39:43.621Z,1168
2017-06-19T03:40:42.982Z,1192
2017-06-19T03:41:43.287Z,1212
2017-06-19T03:42:43.280Z,1236
2017-06-19T03:43:43.283Z,1260
2017-06-19T03:44:42.949Z,1284
2017-06-19T03:45:42.943Z,1312
2017-06-19T03:46:42.935Z,1340
2017-06-19T03:47:43.257Z,1364
2017-06-19T03:48:42.926Z,1388
2017-06-19T03:49:43.575Z,1412
2017-06-19T03:50:42.911Z,1436
2017-06-19T03:51:42.905Z,1460
2017-06-19T03:52:43.568Z,1480
2017-06-19T03:53:42.902Z,1500
2017-06-19T03:54:43.735Z,1520
2017-06-19T03:55:42.889Z,1544
2017-06-19T03:56:43.554Z,1564
2017-06-19T03:57:43.513Z,1592
2017-06-19T03:58:43.523Z,1612
2017-06-19T03:59:43.522Z,1636
2017-06-19T04:00:42.851Z,1660
2017-06-19T04:01:43.493Z,1684
2017-06-19T04:02:43.489Z,1704
2017-06-19T04:03:43.180Z,1724
2017-06-19T04:04:42.843Z,1744
2017-06-19T04:05:43.178Z,1760
2017-06-19T04:06:43.143Z,1780
2017-06-19T04:07:43.168Z,1800
2017-06-19T04:08:42.828Z,1824
2017-06-19T04:09:43.448Z,1840
2017-06-19T04:10:43.443Z,1864
2017-06-19T04:11:43.440Z,1884
2017-06-19T04:12:43.445Z,1908
2017-06-19T04:13:43.425Z,1924
2017-06-19T04:14:43.094Z,1944
2017-06-19T04:15:43.093Z,1964
2017-06-19T04:16:43.413Z,1992
2017-06-19T04:17:43.079Z,2012
2017-06-19T04:18:43.397Z,2036
2017-06-19T04:19:43.068Z,2056
2017-06-19T04:20:43.395Z,2080
2017-06-19T04:21:42.741Z,2100
2017-06-19T04:22:43.051Z,2120
2017-06-19T04:23:42.723Z,2136
2017-06-19T04:24:43.066Z,2152
2017-06-19T04:25:42.716Z,2168
2017-06-19T04:26:42.709Z,2188
2017-06-19T04:27:43.361Z,2200
2017-06-19T04:28:43.020Z,2216
2017-06-19T04:29:43.017Z,2236
2017-06-19T04:30:43.026Z,2252
2017-06-19T04:31:43.355Z,2268
2017-06-19T04:32:42.997Z,2284
2017-06-19T04:33:42.997Z,2304
2017-06-19T04:34:42.665Z,2320
2017-06-19T04:35:43.312Z,2340
2017-06-19T04:36:42.984Z,2352
2017-06-19T04:37:43.293Z,2364
2017-06-19T04:38:42.971Z,2376
2017-06-19T04:39:42.965Z,2388
2017-06-19T04:40:43.281Z,2404
2017-06-19T04:41:43.277Z,2412
2017-06-19T04:42:43.280Z,2424
2017-06-19T04:43:42.941Z,2440
2017-06-19T04:44:42.938Z,2452
2017-06-19T04:45:42.933Z,2464
2017-06-19T04:46:42.625Z,2476
2017-06-19T04:47:43.264Z,2492
2017-06-19T04:48:42.919Z,2508
2017-06-19T04:49:42.934Z,2520
2017-06-19T04:50:42.916Z,2536
2017-06-19T04:51:42.922Z,2544
2017-06-19T04:52:43.238Z,2552
2017-06-19T04:53:42.892Z,2564
2017-06-19T04:54:43.228Z,2576
2017-06-19T04:55:43.234Z,2592
2017-06-19T04:56:43.204Z,2604
2017-06-19T04:57:42.897Z,2620
2017-06-19T04:58:42.878Z,2636
2017-06-19T04:59:42.561Z,2656
2017-06-19T05:00:42.542Z,2676
2017-06-19T05:01:43.179Z,2688
2017-06-19T05:02:42.852Z,2708
2017-06-19T05:03:42.533Z,2728
2017-06-19T05:04:42.843Z,2748
2017-06-19T05:05:43.166Z,2764
2017-06-19T05:06:42.838Z,2784
2017-06-19T05:07:42.512Z,2800
2017-06-19T05:08:43.151Z,2812
2017-06-19T05:09:42.825Z,2824
2017-06-19T05:10:42.839Z,2836
2017-06-19T05:11:43.135Z,2852
2017-06-19T05:12:42.494Z,2864
2017-06-19T05:13:42.486Z,2876
2017-06-19T05:14:42.507Z,2896
2017-06-19T05:15:42.809Z,2904
2017-06-19T05:16:42.509Z,2920
2017-06-19T05:17:42.470Z,2936
2017-06-19T05:18:43.109Z,2948
2017-06-19T05:19:42.787Z,2960
2017-06-19T05:20:42.780Z,2976
2017-06-19T05:21:43.121Z,2996
2017-06-19T05:22:43.124Z,3032
2017-06-19T05:23:42.445Z,3140
2017-06-19T05:24:43.084Z,3188
2017-06-19T05:25:42.451Z,3116
2017-06-19T05:26:43.083Z,3188
2017-06-19T05:27:42.756Z,3228
2017-06-19T05:28:42.427Z,3236
2017-06-19T05:29:43.064Z,3276
2017-06-19T05:30:42.442Z,3456
2017-06-19T05:31:42.772Z,3524
2017-06-19T05:32:42.419Z,3852
2017-06-19T05:33:42.733Z,4388
2017-06-19T05:34:42.731Z,3844
2017-06-19T05:35:42.730Z,4148
2017-06-19T05:36:42.729Z,7168
2017-06-19T05:37:42.394Z,7456
2017-06-19T05:38:42.397Z,6464
2017-06-19T05:39:42.724Z,4504
2017-06-19T05:40:42.731Z,3564
2017-06-19T05:41:42.381Z,3708
2017-06-19T05:42:42.703Z,3600
2017-06-19T05:43:42.391Z,3616
2017-06-19T05:44:42.383Z,3820
2017-06-19T05:45:42.372Z,5444
2017-06-19T05:46:42.378Z,4848
2017-06-19T05:47:42.366Z,4072
2017-06-19T05:48:43.008Z,4856
2017-06-19T05:49:42.039Z,4164
2017-06-19T05:50:42.682Z,3936
2017-06-19T05:51:42.676Z,4472
2017-06-19T05:52:43.006Z,3980
2017-06-19T05:53:42.353Z,3520
2017-06-19T05:54:42.024Z,3412
2017-06-19T05:55:42.685Z,3700
2017-06-19T05:56:42.667Z,3816
2017-06-19T05:57:42.985Z,3496
2017-06-19T05:58:42.011Z,3492
2017-06-19T05:59:42.691Z,3464
2017-06-19T06:00:42.976Z,3420
2017-06-19T06:01:42.661Z,3428
2017-06-19T06:02:42.329Z,3556
2017-06-19T06:03:42.972Z,3672
2017-06-19T06:04:42.339Z,3552
2017-06-19T06:05:42.659Z,3700
2017-06-19T06:06:42.660Z,3680
2017-06-19T06:07:42.641Z,3720
2017-06-19T06:08:42.973Z,4564
2017-06-19T06:09:42.638Z,5404
2017-06-19T06:10:42.631Z,5436
2017-06-19T06:11:42.635Z,4972
2017-06-19T06:12:42.332Z,4156
2017-06-19T06:13:42.946Z,3680
2017-06-19T06:14:42.623Z,3724
2017-06-19T06:15:42.638Z,3776
2017-06-19T06:16:42.943Z,3776
2017-06-19T06:17:41.973Z,3844
2017-06-19T06:18:42.635Z,3920
2017-06-19T06:19:42.943Z,3960
2017-06-19T06:20:42.940Z,4216
2017-06-19T06:21:42.950Z,4288
2017-06-19T06:22:42.618Z,3792
2017-06-19T06:23:42.951Z,3692
2017-06-19T06:24:42.609Z,3740
2017-06-19T06:25:42.934Z,3760
2017-06-19T06:26:42.282Z,3784
2017-06-19T06:27:42.922Z,3760
2017-06-19T06:28:42.600Z,3732
2017-06-19T06:29:42.278Z,3712
2017-06-19T06:30:42.631Z,3708
2017-06-19T06:31:42.597Z,3724
2017-06-19T06:32:42.590Z,3756
2017-06-19T06:33:42.948Z,3816
2017-06-19T06:34:42.591Z,4004
2017-06-19T06:35:42.911Z,4968
2017-06-19T06:36:42.910Z,10120
2017-06-19T06:37:42.286Z,25248
2017-06-19T06:38:42.615Z,40288
2017-06-19T06:39:42.908Z,47392
2017-06-19T06:40:42.925Z,49920
2017-06-19T06:41:42.587Z,50944
2017-06-19T06:42:42.614Z,51712
2017-06-19T06:43:42.907Z,51360
2017-06-19T06:44:42.903Z,51520
2017-06-19T06:45:42.905Z,52128
2017-06-19T06:46:42.915Z,52160
2017-06-19T06:47:42.609Z,52544
2017-06-19T06:48:42.261Z,53440
2017-06-19T06:49:42.910Z,53088
2017-06-19T06:50:42.914Z,50400
2017-06-19T06:51:42.601Z,51680
2017-06-19T06:52:42.291Z,53632
2017-06-19T06:53:42.605Z,53152
2017-06-19T06:54:42.931Z,53216
2017-06-19T06:55:42.612Z,55296
2017-06-19T06:56:42.931Z,57440
2017-06-19T06:57:42.616Z,57536
2017-06-19T06:58:41.977Z,52576
2017-06-19T06:59:42.303Z,48128
2017-06-19T07:00:42.633Z,51136
2017-06-19T07:01:42.315Z,55008
2017-06-19T07:02:42.644Z,56480
2017-06-19T07:03:42.329Z,56704
2017-06-19T07:04:42.670Z,58304
2017-06-19T07:05:42.678Z,57504
2017-06-19T07:06:42.671Z,57600
2017-06-19T07:07:42.998Z,55872
2017-06-19T07:08:42.364Z,54240
2017-06-19T07:09:42.695Z,55232
2017-06-19T07:10:42.702Z,56960
2017-06-19T07:11:43.043Z,54240
2017-06-19T07:12:42.720Z,48160
2017-06-19T07:13:42.400Z,46528
2017-06-19T07:14:43.053Z,52960
2017-06-19T07:15:42.759Z,62624
2017-06-19T07:16:43.075Z,64544
2017-06-19T07:17:42.759Z,57920
2017-06-19T07:18:42.481Z,52704
2017-06-19T07:19:43.124Z,51104
2017-06-19T07:20:42.469Z,54336
2017-06-19T07:21:43.121Z,57632
2017-06-19T07:22:42.819Z,56448
2017-06-19T07:23:42.817Z,55136
2017-06-19T07:24:42.826Z,56992
2017-06-19T07:25:42.831Z,58400
2017-06-19T07:26:42.544Z,52736
2017-06-19T07:27:42.543Z,48352
2017-06-19T07:28:43.183Z,50848
2017-06-19T07:29:43.202Z,53888
2017-06-19T07:30:43.211Z,55136
2017-06-19T07:31:42.889Z,54240
2017-06-19T07:32:42.923Z,52896
2017-06-19T07:33:42.911Z,51744
2017-06-19T07:34:43.243Z,51904
2017-06-19T07:35:42.605Z,54880
2017-06-19T07:36:42.616Z,56256
2017-06-19T07:37:42.637Z,56320
2017-06-19T07:38:42.646Z,55328
2017-06-19T07:39:42.653Z,55552
2017-06-19T07:40:42.659Z,55616
2017-06-19T07:41:43.329Z,53152
2017-06-19T07:42:43.004Z,53504
2017-06-19T07:43:43.010Z,51520
2017-06-19T07:44:42.702Z,49888
2017-06-19T07:45:43.036Z,51008
2017-06-19T07:46:42.727Z,52032
2017-06-19T07:47:43.075Z,53216
2017-06-19T07:48:43.086Z,57056
2017-06-19T07:49:43.096Z,55584
2017-06-19T07:50:43.086Z,55104
2017-06-19T07:51:42.775Z,53984
2017-06-19T07:52:42.786Z,41440
2017-06-19T07:53:43.144Z,18144
2017-06-19T07:54:43.456Z,6404
2017-06-19T07:55:43.138Z,5640
2017-06-19T07:56:43.153Z,5252
2017-06-19T07:57:42.839Z,5000
2017-06-19T07:58:43.193Z,4804
2017-06-19T07:59:42.865Z,4700
2017-06-19T08:00:43.204Z,4588
2017-06-19T08:01:43.202Z,4484
2017-06-19T08:02:43.242Z,4364
2017-06-19T08:03:42.903Z,4280
2017-06-19T08:04:42.913Z,4228
2017-06-19T08:05:43.260Z,4192
2017-06-19T08:06:43.597Z,4180
2017-06-19T08:07:43.592Z,4164
2017-06-19T08:08:43.622Z,4164
2017-06-19T08:09:43.311Z,4152
2017-06-19T08:10:43.620Z,4152
2017-06-19T08:11:42.988Z,4132
2017-06-19T08:12:42.991Z,4116
2017-06-19T08:13:43.331Z,4096
2017-06-19T08:14:43.338Z,4096
2017-06-19T08:15:43.044Z,4100
2017-06-19T08:16:43.044Z,4092
2017-06-19T08:17:43.040Z,4080
2017-06-19T08:18:43.416Z,4060
2017-06-19T08:19:43.381Z,4044
2017-06-19T08:20:43.392Z,4028
2017-06-19T08:21:42.749Z,4004
2017-06-19T08:22:43.728Z,3972
2017-06-19T08:23:43.412Z,3940
2017-06-19T08:24:43.418Z,3916
2017-06-19T08:25:43.423Z,3896
2017-06-19T08:26:43.432Z,3884
2017-06-19T08:27:43.117Z,3896
2017-06-19T08:28:43.440Z,3904
2017-06-19T08:29:42.810Z,3912
2017-06-19T08:30:43.135Z,3920
2017-06-19T08:31:43.460Z,3928
2017-06-19T08:32:43.789Z,3912
2017-06-19T08:33:43.815Z,3916
2017-06-19T08:34:43.812Z,3912
2017-06-19T08:35:43.805Z,3924
2017-06-19T08:36:43.494Z,3936
2017-06-19T08:37:43.174Z,3960
2017-06-19T08:38:43.495Z,3972
2017-06-19T08:39:43.528Z,3980
2017-06-19T08:40:43.834Z,3988
2017-06-19T08:41:43.526Z,3988
2017-06-19T08:42:43.842Z,3992
2017-06-19T08:43:43.521Z,3988
2017-06-19T08:44:43.527Z,3976
2017-06-19T08:45:43.564Z,3964
2017-06-19T08:46:43.218Z,3960
2017-06-19T08:47:43.884Z,3960
2017-06-19T08:48:43.550Z,3932
2017-06-19T08:49:43.554Z,3916
2017-06-19T08:50:43.564Z,3908
2017-06-19T08:51:43.881Z,3892
2017-06-19T08:52:43.233Z,3892
2017-06-19T08:53:42.933Z,3880
2017-06-19T08:54:43.249Z,3888
2017-06-19T08:55:43.284Z,3892
2017-06-19T08:56:43.898Z,3892
2017-06-19T08:57:43.579Z,3900
2017-06-19T08:58:43.292Z,3904
2017-06-19T08:59:43.910Z,3920
2017-06-19T09:00:43.267Z,3920
2017-06-19T09:01:43.912Z,3956
2017-06-19T09:02:43.595Z,3980
2017-06-19T09:03:43.279Z,4000
2017-06-19T09:04:43.941Z,4020
2017-06-19T09:05:43.949Z,4016
2017-06-19T09:06:43.999Z,4004
2017-06-19T09:07:43.614Z,3996
2017-06-19T09:08:43.294Z,3992
2017-06-19T09:09:43.296Z,3992
2017-06-19T09:10:43.302Z,3960
2017-06-19T09:11:43.955Z,3940
2017-06-19T09:12:43.953Z,3924
2017-06-19T09:13:43.634Z,3916
2017-06-19T09:14:43.976Z,3916
2017-06-19T09:15:43.334Z,3932
2017-06-19T09:16:43.654Z,3948
2017-06-19T09:17:43.322Z,3960
2017-06-19T09:18:43.973Z,3960
2017-06-19T09:19:43.669Z,3960
2017-06-19T09:20:44.023Z,3940
2017-06-19T09:21:43.989Z,3924
2017-06-19T09:22:43.677Z,3908
2017-06-19T09:23:43.350Z,3892
2017-06-19T09:24:43.028Z,3896
2017-06-19T09:25:43.355Z,3892
2017-06-19T09:26:44.001Z,3904
2017-06-19T09:27:43.717Z,3912
2017-06-19T09:28:43.370Z,3912
2017-06-19T09:29:44.009Z,3916
2017-06-19T09:30:44.012Z,3900
2017-06-19T09:31:43.372Z,3920
2017-06-19T09:32:44.043Z,3908
2017-06-19T09:33:44.021Z,3916
2017-06-19T09:34:43.707Z,3924
2017-06-19T09:35:43.712Z,3904
2017-06-19T09:36:43.386Z,3884
2017-06-19T09:37:44.016Z,3860
2017-06-19T09:38:44.070Z,3836
2017-06-19T09:39:43.736Z,3824
2017-06-19T09:40:43.740Z,3820
2017-06-19T09:41:44.071Z,3812
2017-06-19T09:42:43.414Z,3800
2017-06-19T09:43:44.077Z,3800
2017-06-19T09:44:43.745Z,3796
2017-06-19T09:45:44.063Z,3788
2017-06-19T09:46:43.424Z,3780
2017-06-19T09:47:43.424Z,3772
2017-06-19T09:48:43.774Z,3768
2017-06-19T09:49:43.773Z,3772
2017-06-19T09:50:43.758Z,3772
2017-06-19T09:51:43.775Z,3780
2017-06-19T09:52:43.779Z,3788
2017-06-19T09:53:43.772Z,3800
2017-06-19T09:54:43.777Z,3820
2017-06-19T09:55:43.786Z,3840
2017-06-19T09:56:43.468Z,3880
2017-06-19T09:57:44.106Z,3912
2017-06-19T09:58:43.464Z,3896
2017-06-19T09:59:43.807Z,3900
2017-06-19T10:00:43.472Z,3900
2017-06-19T10:01:43.800Z,3872
2017-06-19T10:02:44.129Z,3832
2017-06-19T10:03:43.517Z,3796
2017-06-19T10:04:43.815Z,3776
2017-06-19T10:05:43.505Z,3736
2017-06-19T10:06:44.136Z,3704
2017-06-19T10:07:44.178Z,3672
2017-06-19T10:08:43.176Z,3652
2017-06-19T10:09:43.502Z,3644
2017-06-19T10:10:43.506Z,3644
2017-06-19T10:11:43.511Z,3636
2017-06-19T10:12:43.864Z,3628
2017-06-19T10:13:43.516Z,3616
2017-06-19T10:14:43.557Z,3612
2017-06-19T10:15:43.529Z,3608
2017-06-19T10:16:43.876Z,3604
2017-06-19T10:17:43.867Z,3592
2017-06-19T10:18:43.861Z,3584
2017-06-19T10:19:44.200Z,3580
2017-06-19T10:20:43.867Z,3580
2017-06-19T10:21:43.233Z,3584
2017-06-19T10:22:43.873Z,3600
2017-06-19T10:23:44.238Z,3612
2017-06-19T10:24:43.898Z,3612
2017-06-19T10:25:43.238Z,3620
2017-06-19T10:26:43.891Z,3628
2017-06-19T10:27:43.581Z,3632
2017-06-19T10:28:43.573Z,3636
2017-06-19T10:29:43.902Z,3620
2017-06-19T10:30:43.900Z,3600
2017-06-19T10:31:43.591Z,3580
2017-06-19T10:32:43.907Z,3580
2017-06-19T10:33:43.920Z,3572
2017-06-19T10:34:43.274Z,3568
2017-06-19T10:35:43.600Z,3556
2017-06-19T10:36:43.610Z,3548
2017-06-19T10:37:43.948Z,3540
2017-06-19T10:38:43.943Z,3540
2017-06-19T10:39:43.948Z,3536
2017-06-19T10:40:43.963Z,3524
2017-06-19T10:41:44.267Z,3516
2017-06-19T10:42:43.304Z,3508
2017-06-19T10:43:43.954Z,3496
2017-06-19T10:44:43.660Z,3504
2017-06-19T10:45:44.306Z,3508
2017-06-19T10:46:43.976Z,3500
2017-06-19T10:47:43.653Z,3496
2017-06-19T10:48:44.294Z,3484
2017-06-19T10:49:43.982Z,3480
2017-06-19T10:50:43.976Z,3480
2017-06-19T10:51:43.668Z,3468
2017-06-19T10:52:43.991Z,3452
2017-06-19T10:53:43.992Z,3444
2017-06-19T10:54:44.361Z,3436
2017-06-19T10:55:44.010Z,3424
2017-06-19T10:56:44.021Z,3416
2017-06-19T10:57:43.714Z,3428
2017-06-19T10:58:44.015Z,3436
2017-06-19T10:59:44.348Z,3452
2017-06-19T11:00:44.340Z,3472
2017-06-19T11:01:44.036Z,3472
2017-06-19T11:02:43.709Z,3484
2017-06-19T11:03:44.353Z,3504
2017-06-19T11:04:44.057Z,3524
2017-06-19T11:05:44.371Z,3540
2017-06-19T11:06:44.049Z,3540
2017-06-19T11:07:43.733Z,3540
2017-06-19T11:08:44.374Z,3524
2017-06-19T11:09:43.744Z,3508
2017-06-19T11:10:44.391Z,3484
2017-06-19T11:11:44.408Z,3472
2017-06-19T11:12:44.097Z,3460
2017-06-19T11:13:44.082Z,3480
2017-06-19T11:14:43.764Z,3500
2017-06-19T11:15:43.763Z,3524
2017-06-19T11:16:44.095Z,3548
2017-06-19T11:17:44.118Z,3536
2017-06-19T11:18:44.153Z,3544
2017-06-19T11:19:44.117Z,3608
2017-06-19T11:20:43.786Z,3616
2017-06-19T11:21:44.437Z,3608
2017-06-19T11:22:44.116Z,3608
2017-06-19T11:23:43.799Z,3596
2017-06-19T11:24:44.126Z,3592
2017-06-19T11:25:44.445Z,3552
2017-06-19T11:26:44.132Z,3516
2017-06-19T11:27:43.816Z,3448
2017-06-19T11:28:44.472Z,3412
2017-06-19T11:29:44.467Z,3400
2017-06-19T11:30:43.825Z,3388
2017-06-19T11:31:44.494Z,3372
2017-06-19T11:32:44.184Z,3364
2017-06-19T11:33:43.837Z,3364
2017-06-19T11:34:43.537Z,3376
2017-06-19T11:35:44.178Z,3376
2017-06-19T11:36:44.191Z,3380
2017-06-19T11:37:43.537Z,3364
2017-06-19T11:38:44.180Z,3328
2017-06-19T11:39:43.874Z,3300
2017-06-19T11:40:43.862Z,3284
2017-06-19T11:41:44.193Z,3264
2017-06-19T11:42:44.519Z,3264
2017-06-19T11:43:43.557Z,3244
2017-06-19T11:44:43.562Z,3252
2017-06-19T11:45:44.538Z,3284
2017-06-19T11:46:44.535Z,3308
2017-06-19T11:47:43.573Z,3320
2017-06-19T11:48:43.896Z,3320
2017-06-19T11:49:44.544Z,3316
2017-06-19T11:50:44.239Z,3288
2017-06-19T11:51:44.554Z,3304
2017-06-19T11:52:43.914Z,3312
2017-06-19T11:53:43.931Z,3328
2017-06-19T11:54:43.925Z,3348
2017-06-19T11:55:44.246Z,3320
2017-06-19T11:56:43.928Z,3296
2017-06-19T11:57:44.458Z,3276
2017-06-19T11:58:44.269Z,3252
2017-06-19T11:59:44.271Z,3240
2017-06-19T12:00:44.594Z,3240
2017-06-19T12:01:43.631Z,3240
2017-06-19T12:02:44.278Z,3240
2017-06-19T12:03:44.283Z,3292
2017-06-19T12:04:43.975Z,3320
2017-06-19T12:05:44.628Z,3348
2017-06-19T12:06:44.304Z,3312
2017-06-19T12:07:43.985Z,3268
2017-06-19T12:08:44.619Z,3220
2017-06-19T12:09:43.973Z,3204
2017-06-19T12:10:44.633Z,3188
2017-06-19T12:11:44.314Z,3164
2017-06-19T12:12:44.314Z,3152
2017-06-19T12:13:44.311Z,3148
2017-06-19T12:14:44.642Z,3152
2017-06-19T12:15:44.645Z,3148
2017-06-19T12:16:44.327Z,3148
2017-06-19T12:17:44.651Z,3144
2017-06-19T12:18:44.365Z,3172
2017-06-19T12:19:44.404Z,3188
2017-06-19T12:20:44.664Z,3200
2017-06-19T12:21:44.678Z,3200
2017-06-19T12:22:44.676Z,3192
2017-06-19T12:23:44.041Z,3232
2017-06-19T12:24:44.378Z,3308
2017-06-19T12:25:44.368Z,3264
2017-06-19T12:26:44.402Z,3216
2017-06-19T12:27:44.054Z,3204
2017-06-19T12:28:44.698Z,3208
2017-06-19T12:29:44.385Z,3204
2017-06-19T12:30:44.401Z,3212
2017-06-19T12:31:44.388Z,3232
2017-06-19T12:32:44.413Z,3252
2017-06-19T12:33:44.075Z,3264
2017-06-19T12:34:44.730Z,3284
2017-06-19T12:35:43.765Z,3312
2017-06-19T12:36:44.734Z,3324
2017-06-19T12:37:44.739Z,3332
2017-06-19T12:38:44.420Z,3328
2017-06-19T12:39:44.424Z,3320
2017-06-19T12:40:44.130Z,3320
2017-06-19T12:41:44.448Z,3324
2017-06-19T12:42:44.479Z,3340
2017-06-19T12:43:44.766Z,3372
2017-06-19T12:44:43.805Z,3416
2017-06-19T12:45:44.451Z,3436
2017-06-19T12:46:44.476Z,3472
2017-06-19T12:47:44.473Z,3512
2017-06-19T12:48:44.464Z,3524
2017-06-19T12:49:43.829Z,3544
2017-06-19T12:50:44.151Z,3552
2017-06-19T12:51:44.479Z,3532
2017-06-19T12:52:44.181Z,3500
2017-06-19T12:53:44.501Z,3464
2017-06-19T12:54:44.838Z,3416
2017-06-19T12:55:44.842Z,3368
2017-06-19T12:56:44.830Z,3328
2017-06-19T12:57:44.204Z,3312
2017-06-19T12:58:44.522Z,3348
2017-06-19T12:59:44.852Z,3340
2017-06-19T13:00:44.515Z,3420
2017-06-19T13:01:44.203Z,3496
2017-06-19T13:02:44.526Z,3532
2017-06-19T13:03:44.533Z,3524
2017-06-19T13:04:44.538Z,3472
2017-06-19T13:05:43.921Z,3424
2017-06-19T13:06:44.548Z,3384
2017-06-19T13:07:44.554Z,3360
2017-06-19T13:08:44.918Z,3324
2017-06-19T13:09:43.918Z,3292
2017-06-19T13:10:44.591Z,3284
2017-06-19T13:11:44.250Z,3280
2017-06-19T13:12:44.892Z,3272
2017-06-19T13:13:44.930Z,3288
2017-06-19T13:14:44.588Z,3268
2017-06-19T13:15:44.266Z,3256
2017-06-19T13:16:44.592Z,3228
2017-06-19T13:17:43.955Z,3188
2017-06-19T13:18:44.691Z,3176
2017-06-19T13:19:44.945Z,3176
2017-06-19T13:20:44.301Z,3152
2017-06-19T13:21:44.945Z,3140
2017-06-19T13:22:44.313Z,3128
2017-06-19T13:23:44.635Z,3160
2017-06-19T13:24:44.332Z,3160
2017-06-19T13:25:44.635Z,3132
2017-06-19T13:26:44.649Z,3112
2017-06-19T13:27:44.658Z,3116
2017-06-19T13:28:44.679Z,3104
2017-06-19T13:29:44.978Z,3084
2017-06-19T13:30:44.039Z,3072
2017-06-19T13:31:45.009Z,3064
2017-06-19T13:32:44.686Z,3064
2017-06-19T13:33:44.037Z,3072